Jack Guidry — WDF2422 — position and weather

sailwx.info

Track history (hours):
 
Tides and Currents Weather Stations Pressure Air Temp Water Temp Dewpoint Dewpoint Depression Visibility Wind Speed Wind Dir Waves Ship Positions

Jack Guidry

Owner: Enterprise Marine Services, LLC, San Antonio, TX. More information available from US FCC via Universal Licensing System and Coast Guard Vessel Documentation Center.

Last reported at 2016-Jun-24 02:06 UTC. Time now 2016-Jun-28 05:59 UTC.
Position N 30°01' W 093°46'.

Length 22 m; draft 3 m.

Type: Other ship. MMSI: 367003430.

Date/timePositionNaut miles runAvg speedWind from/ knotsBaromVisibWave heightAir tempDewpointWater temp
2016-Jun-24 02:06N 30°01' W 093°46'3 5.4
2016-Jun-24 01:33N 30°03' W 093°44'4 4.3
2016-Jun-24 00:33N 30°04' W 093°39'4 4.2
2016-Jun-23 23:34N 30°04' W 093°34'4 3.8
2016-Jun-23 22:34N 30°04' W 093°30'4 3.8
2016-Jun-23 21:33N 30°04' W 093°25'4 3.6
2016-Jun-23 20:34N 30°04' W 093°21'4 3.9
2016-Jun-23 19:34N 30°08' W 093°20'1 0.8
2016-Jun-23 18:33N 30°08' W 093°19'0 0.0
2016-Jun-23 17:34N 30°08' W 093°19'0 0.0
2016-Jun-23 16:34N 30°08' W 093°19'0 0.0
2016-Jun-23 15:33N 30°08' W 093°19'0 0.0
2016-Jun-23 14:34N 30°08' W 093°19'0 0.0
2016-Jun-23 13:34N 30°08' W 093°19'0 0.0
2016-Jun-23 12:33N 30°08' W 093°19'0 0.0
2016-Jun-23 11:33N 30°08' W 093°19'0 0.0
2016-Jun-23 10:34N 30°08' W 093°19'0 0.0
2016-Jun-23 09:33N 30°08' W 093°19'0 0.0
2016-Jun-23 08:34N 30°08' W 093°19'0 0.0
2016-Jun-23 07:34N 30°08' W 093°19'0 0.0
2016-Jun-23 05:34N 30°08' W 093°19'0 0.0
2016-Jun-23 04:34N 30°08' W 093°19'0 0.0
2016-Jun-23 03:33N 30°08' W 093°19'0 0.0
2016-Jun-23 02:34N 30°08' W 093°19'0 0.0
2016-Jun-23 01:34N 30°08' W 093°19'0 0.0
2016-Jun-23 00:34N 30°08' W 093°19'0 0.0
2016-Jun-22 23:34N 30°08' W 093°19'0 0.0
2016-Jun-22 22:34N 30°08' W 093°19'0 0.0
2016-Jun-22 21:33N 30°08' W 093°19'0 0.0
2016-Jun-22 20:34N 30°08' W 093°19'0 0.0
2016-Jun-22 19:33N 30°08' W 093°19'0 0.0
2016-Jun-22 18:34N 30°08' W 093°19'0 0.0
2016-Jun-22 17:34N 30°08' W 093°19'0 0.0
2016-Jun-22 16:33N 30°08' W 093°19'0 0.0
2016-Jun-22 15:34N 30°08' W 093°19'0 0.0
2016-Jun-22 14:33N 30°08' W 093°19'2 2.1
2016-Jun-22 13:34N 30°06' W 093°20'2 1.7
2016-Jun-22 12:33N 30°04' W 093°20'0 0.0
2016-Jun-22 11:33N 30°04' W 093°20'0 0.0
2016-Jun-22 10:34N 30°04' W 093°20'0 0.0
2016-Jun-22 09:34N 30°04' W 093°20'0 0.0
2016-Jun-22 08:33N 30°04' W 093°20'0 0.0
2016-Jun-22 07:33N 30°04' W 093°20'0 0.0
2016-Jun-22 06:33N 30°04' W 093°20'0 0.0
2016-Jun-22 05:34N 30°04' W 093°20'0 0.0
2016-Jun-22 04:34N 30°04' W 093°20'0 0.0
2016-Jun-22 03:34N 30°04' W 093°20'0 0.0
2016-Jun-22 02:34N 30°04' W 093°20'0 0.0
2016-Jun-22 01:34N 30°04' W 093°20'0 0.0
2016-Jun-22 00:34N 30°04' W 093°20'0 0.0
2016-Jun-21 23:34N 30°04' W 093°20'0 0.0
2016-Jun-21 22:34N 30°04' W 093°20'0 0.0
2016-Jun-21 21:34N 30°04' W 093°20'0 0.0
2016-Jun-21 20:34N 30°04' W 093°20'0 0.0
2016-Jun-21 19:34N 30°04' W 093°20'1 1.1
2016-Jun-21 18:34N 30°04' W 093°21'1 1.0
2016-Jun-21 17:34N 30°04' W 093°20'1 1.0
2016-Jun-21 16:34N 30°04' W 093°21'0 0.0
2016-Jun-21 15:34N 30°04' W 093°21'0 0.0
2016-Jun-21 14:34N 30°04' W 093°21'0 0.0
2016-Jun-21 13:34N 30°04' W 093°21'1 1.1
2016-Jun-21 12:34N 30°04' W 093°20'0 0.0
2016-Jun-21 11:34N 30°04' W 093°20'1 1.2
2016-Jun-21 10:34N 30°04' W 093°21'6 5.8
2016-Jun-21 09:34N 30°04' W 093°28'3 2.7
2016-Jun-21 08:34N 30°04' W 093°31'5 4.5
2016-Jun-21 07:33N 30°04' W 093°37'6 5.3
2016-Jun-21 06:31N 30°03' W 093°43'69 4.3
2016-Jun-20 14:18N 29°33' W 094°55'5 6.9
2016-Jun-20 13:31N 29°38' W 094°58'6 6.1
2016-Jun-20 12:33N 29°43' W 095°01'7 0.3
2016-Jun-19 10:20N 29°44' W 095°09'5 0.2
2016-Jun-18 13:19N 29°47' W 095°05'2 2.7
2016-Jun-18 12:28N 29°45' W 095°04'6 6.3
2016-Jun-18 11:33N 29°41' W 094°59'7 6.9
2016-Jun-18 10:34N 29°35' W 094°56'67 3.6
2016-Jun-17 16:06N 30°01' W 093°45'2 4.3
2016-Jun-17 15:33N 30°03' W 093°44'5 4.6
2016-Jun-17 14:33N 30°04' W 093°38'4 4.4
2016-Jun-17 13:33N 30°04' W 093°33'4 4.2
2016-Jun-17 12:29N 30°04' W 093°28'3 3.6
2016-Jun-17 11:34N 30°04' W 093°24'4 3.6
2016-Jun-17 10:31N 30°05' W 093°20'2 2.2
2016-Jun-17 09:31N 30°07' W 093°20'1 1.1
2016-Jun-17 08:13N 30°08' W 093°19'0 0.2
2016-Jun-17 07:09N 30°08' W 093°19'0 0.0
2016-Jun-17 05:21N 30°08' W 093°19'0 0.0
2016-Jun-17 03:33N 30°08' W 093°19'0 0.0
2016-Jun-17 01:12N 30°08' W 093°19'0 0.0
2016-Jun-17 00:33N 30°08' W 093°19'0 0.0
2016-Jun-16 23:33N 30°08' W 093°19'0 0.0
2016-Jun-16 22:33N 30°08' W 093°19'0 0.0
2016-Jun-16 21:33N 30°08' W 093°19'0 0.0
2016-Jun-16 20:33N 30°08' W 093°19'0 0.0
2016-Jun-16 19:33N 30°08' W 093°19'0 0.0
2016-Jun-16 18:33N 30°08' W 093°19'0 0.0
2016-Jun-16 17:33N 30°08' W 093°19'0 0.0
2016-Jun-16 16:33N 30°08' W 093°19'0 0.0
2016-Jun-16 15:33N 30°08' W 093°19'0 0.0
2016-Jun-16 14:33N 30°08' W 093°19'0 0.0
2016-Jun-16 13:33N 30°08' W 093°19'0 0.0
2016-Jun-16 12:32N 30°08' W 093°19'0 0.0
2016-Jun-16 11:32N 30°08' W 093°19'1 0.3
2016-Jun-16 07:12N 30°07' W 093°20'3 4.3
2016-Jun-16 06:30N 30°04' W 093°21'0 0.0
2016-Jun-16 04:27N 30°04' W 093°21'0 0.0
2016-Jun-16 03:33N 30°04' W 093°21'0 0.0
2016-Jun-16 02:33N 30°04' W 093°21'0 0.0
2016-Jun-16 01:33N 30°04' W 093°21'0 0.0
2016-Jun-16 00:31N 30°04' W 093°21'0 0.0
2016-Jun-15 23:33N 30°04' W 093°21'0 0.0
2016-Jun-15 22:33N 30°04' W 093°21'0 0.0
2016-Jun-15 21:33N 30°04' W 093°21'0 0.0
2016-Jun-15 20:33N 30°04' W 093°21'0 0.0
2016-Jun-15 19:32N 30°04' W 093°21'0 0.0
2016-Jun-15 18:33N 30°04' W 093°21'0 0.0
2016-Jun-15 17:33N 30°04' W 093°21'0 0.0
2016-Jun-15 16:33N 30°04' W 093°21'0 0.0
2016-Jun-15 15:33N 30°04' W 093°21'0 0.0
2016-Jun-15 14:33N 30°04' W 093°21'0 0.0
2016-Jun-15 13:32N 30°04' W 093°21'0 0.0
2016-Jun-15 12:33N 30°04' W 093°21'4 3.9
2016-Jun-15 11:32N 30°04' W 093°25'6 6.4
2016-Jun-15 10:33N 30°04' W 093°32'77 4.0
2016-Jun-14 15:03N 29°32' W 094°54'3 6.7
2016-Jun-14 14:31N 29°35' W 094°56'8 7.2
2016-Jun-14 13:29N 29°42' W 095°00'  
Track history (hours):
 
Tides and Currents Weather Stations Pressure Air Temp Water Temp Dewpoint Dewpoint Depression Visibility Wind Speed Wind Dir Waves Ship Positions

Jack Guidry

Owner: Enterprise Marine Services, LLC, San Antonio, TX. More information available from US FCC via Universal Licensing System and Coast Guard Vessel Documentation Center.

Last reported at 2016-Jun-24 02:06 UTC. Time now 2016-Jun-28 05:59 UTC.
Position N 30°01' W 093°46'.

Length 22 m; draft 3 m.

Type: Other ship. MMSI: 367003430.

Date/timePositionNaut miles runAvg speedWind from/ knotsBaromVisibWave heightAir tempDewpointWater temp
2016-Jun-24 02:06N 30°01' W 093°46'3 5.4
2016-Jun-24 01:33N 30°03' W 093°44'4 4.3
2016-Jun-24 00:33N 30°04' W 093°39'4 4.2
2016-Jun-23 23:34N 30°04' W 093°34'4 3.8
2016-Jun-23 22:34N 30°04' W 093°30'4 3.8
2016-Jun-23 21:33N 30°04' W 093°25'4 3.6
2016-Jun-23 20:34N 30°04' W 093°21'4 3.9
2016-Jun-23 19:34N 30°08' W 093°20'1 0.8
2016-Jun-23 18:33N 30°08' W 093°19'0 0.0
2016-Jun-23 17:34N 30°08' W 093°19'0 0.0
2016-Jun-23 16:34N 30°08' W 093°19'0 0.0
2016-Jun-23 15:33N 30°08' W 093°19'0 0.0
2016-Jun-23 14:34N 30°08' W 093°19'0 0.0
2016-Jun-23 13:34N 30°08' W 093°19'0 0.0
2016-Jun-23 12:33N 30°08' W 093°19'0 0.0
2016-Jun-23 11:33N 30°08' W 093°19'0 0.0
2016-Jun-23 10:34N 30°08' W 093°19'0 0.0
2016-Jun-23 09:33N 30°08' W 093°19'0 0.0
2016-Jun-23 08:34N 30°08' W 093°19'0 0.0
2016-Jun-23 07:34N 30°08' W 093°19'0 0.0
2016-Jun-23 05:34N 30°08' W 093°19'0 0.0
2016-Jun-23 04:34N 30°08' W 093°19'0 0.0
2016-Jun-23 03:33N 30°08' W 093°19'0 0.0
2016-Jun-23 02:34N 30°08' W 093°19'0 0.0
2016-Jun-23 01:34N 30°08' W 093°19'0 0.0
2016-Jun-23 00:34N 30°08' W 093°19'0 0.0
2016-Jun-22 23:34N 30°08' W 093°19'0 0.0
2016-Jun-22 22:34N 30°08' W 093°19'0 0.0
2016-Jun-22 21:33N 30°08' W 093°19'0 0.0
2016-Jun-22 20:34N 30°08' W 093°19'0 0.0
2016-Jun-22 19:33N 30°08' W 093°19'0 0.0
2016-Jun-22 18:34N 30°08' W 093°19'0 0.0
2016-Jun-22 17:34N 30°08' W 093°19'0 0.0
2016-Jun-22 16:33N 30°08' W 093°19'0 0.0
2016-Jun-22 15:34N 30°08' W 093°19'0 0.0
2016-Jun-22 14:33N 30°08' W 093°19'2 2.1
2016-Jun-22 13:34N 30°06' W 093°20'2 1.7
2016-Jun-22 12:33N 30°04' W 093°20'0 0.0
2016-Jun-22 11:33N 30°04' W 093°20'0 0.0
2016-Jun-22 10:34N 30°04' W 093°20'0 0.0
2016-Jun-22 09:34N 30°04' W 093°20'0 0.0
2016-Jun-22 08:33N 30°04' W 093°20'0 0.0
2016-Jun-22 07:33N 30°04' W 093°20'0 0.0
2016-Jun-22 06:33N 30°04' W 093°20'0 0.0
2016-Jun-22 05:34N 30°04' W 093°20'0 0.0
2016-Jun-22 04:34N 30°04' W 093°20'0 0.0
2016-Jun-22 03:34N 30°04' W 093°20'0 0.0
2016-Jun-22 02:34N 30°04' W 093°20'0 0.0
2016-Jun-22 01:34N 30°04' W 093°20'0 0.0
2016-Jun-22 00:34N 30°04' W 093°20'0 0.0
2016-Jun-21 23:34N 30°04' W 093°20'0 0.0
2016-Jun-21 22:34N 30°04' W 093°20'0 0.0
2016-Jun-21 21:34N 30°04' W 093°20'0 0.0
2016-Jun-21 20:34N 30°04' W 093°20'0 0.0
2016-Jun-21 19:34N 30°04' W 093°20'1 1.1
2016-Jun-21 18:34N 30°04' W 093°21'1 1.0
2016-Jun-21 17:34N 30°04' W 093°20'1 1.0
2016-Jun-21 16:34N 30°04' W 093°21'0 0.0
2016-Jun-21 15:34N 30°04' W 093°21'0 0.0
2016-Jun-21 14:34N 30°04' W 093°21'0 0.0
2016-Jun-21 13:34N 30°04' W 093°21'1 1.1
2016-Jun-21 12:34N 30°04' W 093°20'0 0.0
2016-Jun-21 11:34N 30°04' W 093°20'1 1.2
2016-Jun-21 10:34N 30°04' W 093°21'6 5.8
2016-Jun-21 09:34N 30°04' W 093°28'3 2.7
2016-Jun-21 08:34N 30°04' W 093°31'5 4.5
2016-Jun-21 07:33N 30°04' W 093°37'6 5.3
2016-Jun-21 06:31N 30°03' W 093°43'69 4.3
2016-Jun-20 14:18N 29°33' W 094°55'5 6.9
2016-Jun-20 13:31N 29°38' W 094°58'6 6.1
2016-Jun-20 12:33N 29°43' W 095°01'7 0.3
2016-Jun-19 10:20N 29°44' W 095°09'5 0.2
2016-Jun-18 13:19N 29°47' W 095°05'2 2.7
2016-Jun-18 12:28N 29°45' W 095°04'6 6.3
2016-Jun-18 11:33N 29°41' W 094°59'7 6.9
2016-Jun-18 10:34N 29°35' W 094°56'67 3.6
2016-Jun-17 16:06N 30°01' W 093°45'2 4.3
2016-Jun-17 15:33N 30°03' W 093°44'5 4.6
2016-Jun-17 14:33N 30°04' W 093°38'4 4.4
2016-Jun-17 13:33N 30°04' W 093°33'4 4.2
2016-Jun-17 12:29N 30°04' W 093°28'3 3.6
2016-Jun-17 11:34N 30°04' W 093°24'4 3.6
2016-Jun-17 10:31N 30°05' W 093°20'2 2.2
2016-Jun-17 09:31N 30°07' W 093°20'1 1.1
2016-Jun-17 08:13N 30°08' W 093°19'0 0.2
2016-Jun-17 07:09N 30°08' W 093°19'0 0.0
2016-Jun-17 05:21N 30°08' W 093°19'0 0.0
2016-Jun-17 03:33N 30°08' W 093°19'0 0.0
2016-Jun-17 01:12N 30°08' W 093°19'0 0.0
2016-Jun-17 00:33N 30°08' W 093°19'0 0.0
2016-Jun-16 23:33N 30°08' W 093°19'0 0.0
2016-Jun-16 22:33N 30°08' W 093°19'0 0.0
2016-Jun-16 21:33N 30°08' W 093°19'0 0.0
2016-Jun-16 20:33N 30°08' W 093°19'0 0.0
2016-Jun-16 19:33N 30°08' W 093°19'0 0.0
2016-Jun-16 18:33N 30°08' W 093°19'0 0.0
2016-Jun-16 17:33N 30°08' W 093°19'0 0.0
2016-Jun-16 16:33N 30°08' W 093°19'0 0.0
2016-Jun-16 15:33N 30°08' W 093°19'0 0.0
2016-Jun-16 14:33N 30°08' W 093°19'0 0.0
2016-Jun-16 13:33N 30°08' W 093°19'0 0.0
2016-Jun-16 12:32N 30°08' W 093°19'0 0.0
2016-Jun-16 11:32N 30°08' W 093°19'1 0.3
2016-Jun-16 07:12N 30°07' W 093°20'3 4.3
2016-Jun-16 06:30N 30°04' W 093°21'0 0.0
2016-Jun-16 04:27N 30°04' W 093°21'0 0.0
2016-Jun-16 03:33N 30°04' W 093°21'0 0.0
2016-Jun-16 02:33N 30°04' W 093°21'0 0.0
2016-Jun-16 01:33N 30°04' W 093°21'0 0.0
2016-Jun-16 00:31N 30°04' W 093°21'0 0.0
2016-Jun-15 23:33N 30°04' W 093°21'0 0.0
2016-Jun-15 22:33N 30°04' W 093°21'0 0.0
2016-Jun-15 21:33N 30°04' W 093°21'0 0.0
2016-Jun-15 20:33N 30°04' W 093°21'0 0.0
2016-Jun-15 19:32N 30°04' W 093°21'0 0.0
2016-Jun-15 18:33N 30°04' W 093°21'0 0.0
2016-Jun-15 17:33N 30°04' W 093°21'0 0.0
2016-Jun-15 16:33N 30°04' W 093°21'0 0.0
2016-Jun-15 15:33N 30°04' W 093°21'0 0.0
2016-Jun-15 14:33N 30°04' W 093°21'0 0.0
2016-Jun-15 13:32N 30°04' W 093°21'0 0.0
2016-Jun-15 12:33N 30°04' W 093°21'4 3.9
2016-Jun-15 11:32N 30°04' W 093°25'6 6.4
2016-Jun-15 10:33N 30°04' W 093°32'77 4.0
2016-Jun-14 15:03N 29°32' W 094°54'3 6.7
2016-Jun-14 14:31N 29°35' W 094°56'8 7.2
2016-Jun-14 13:29N 29°42' W 095°00'  

Dump ship's entire track history